createdAt,value
2018-06-24T00:01:10.957Z,4.60
2018-06-24T00:03:39.146Z,4.90
2018-06-24T00:06:07.436Z,4.80
2018-06-24T00:08:35.627Z,5.97
2018-06-24T00:11:03.871Z,5.33
2018-06-24T00:13:32.082Z,6.33
2018-06-24T00:16:00.294Z,5.47
2018-06-24T00:18:28.784Z,5.47
2018-06-24T00:20:56.988Z,5.03
2018-06-24T00:23:25.179Z,7.20
2018-06-24T00:25:53.418Z,6.73
2018-06-24T00:28:21.616Z,5.63
2018-06-24T00:30:49.850Z,6.00
2018-06-24T00:33:18.045Z,5.20
2018-06-24T00:35:46.263Z,5.70
2018-06-24T00:38:14.535Z,5.60
2018-06-24T00:40:42.748Z,6.20
2018-06-24T00:43:11.135Z,6.23
2018-06-24T00:45:39.331Z,5.53
2018-06-24T00:48:07.545Z,5.60
2018-06-24T00:50:35.744Z,6.07
2018-06-24T00:53:04.048Z,6.43
2018-06-24T00:55:32.353Z,6.07
2018-06-24T00:58:00.564Z,5.70
2018-06-24T01:00:28.760Z,6.60
2018-06-24T01:02:56.955Z,5.40
2018-06-24T01:05:25.211Z,5.53
2018-06-24T01:07:53.410Z,5.10
2018-06-24T01:10:21.601Z,5.77
2018-06-24T01:12:49.819Z,5.33
2018-06-24T01:15:18.010Z,6.30
2018-06-24T01:17:46.246Z,5.70
2018-06-24T01:20:14.463Z,5.83
2018-06-24T01:22:42.651Z,5.90
2018-06-24T01:25:10.848Z,6.30
2018-06-24T01:27:39.037Z,5.60
2018-06-24T01:30:07.234Z,5.50
2018-06-24T01:32:35.421Z,5.33
2018-06-24T01:35:03.632Z,5.70
2018-06-24T01:37:31.859Z,5.43
2018-06-24T01:40:00.072Z,6.13
2018-06-24T01:42:28.246Z,5.70
2018-06-24T01:44:56.459Z,6.70
2018-06-24T01:47:24.680Z,5.47
2018-06-24T01:49:52.870Z,5.20
2018-06-24T01:52:21.551Z,5.60
2018-06-24T01:54:49.774Z,6.23
2018-06-24T01:57:17.979Z,6.43
2018-06-24T01:59:46.185Z,5.10
2018-06-24T02:02:14.371Z,6.43
2018-06-24T02:04:42.822Z,6.10
2018-06-24T02:07:10.995Z,5.83
2018-06-24T02:09:39.180Z,5.50
2018-06-24T02:12:07.355Z,6.40
2018-06-24T02:14:35.657Z,5.80
2018-06-24T02:17:04.038Z,6.77
2018-06-24T02:19:32.253Z,6.10
2018-06-24T02:22:00.432Z,7.67
2018-06-24T02:24:28.606Z,6.43
2018-06-24T02:26:56.796Z,5.70
2018-06-24T02:29:24.970Z,6.40
2018-06-24T02:31:53.136Z,6.20
2018-06-24T02:34:21.319Z,5.90
2018-06-24T02:36:49.491Z,5.90
2018-06-24T02:39:17.922Z,5.97
2018-06-24T02:41:46.087Z,6.30
2018-06-24T02:44:14.307Z,6.17
2018-06-24T02:46:42.475Z,7.67
2018-06-24T02:49:10.665Z,6.00
2018-06-24T02:51:38.843Z,6.10
2018-06-24T02:54:07.040Z,6.80
2018-06-24T02:56:35.235Z,6.03
2018-06-24T02:59:03.427Z,7.00
2018-06-24T03:01:31.671Z,6.50
2018-06-24T03:03:59.891Z,6.67
2018-06-24T03:06:28.081Z,6.97
2018-06-24T03:08:56.326Z,6.93
2018-06-24T03:11:24.531Z,6.77
2018-06-24T03:13:52.875Z,7.50
2018-06-24T03:16:21.052Z,6.90
2018-06-24T03:18:49.258Z,7.20
2018-06-24T03:21:17.447Z,8.37
2018-06-24T03:23:45.646Z,5.40
2018-06-24T03:26:13.821Z,6.83
2018-06-24T03:28:42.029Z,5.93
2018-06-24T03:31:10.233Z,5.97
2018-06-24T03:33:38.461Z,6.37
2018-06-24T03:36:06.405Z,5.80
2018-06-24T03:38:34.651Z,6.93
2018-06-24T03:41:02.834Z,7.60
2018-06-24T03:43:31.022Z,6.70
2018-06-24T03:45:59.254Z,6.77
2018-06-24T03:48:27.489Z,7.00
2018-06-24T03:50:55.725Z,7.37
2018-06-24T03:53:23.942Z,7.90
2018-06-24T03:55:51.881Z,6.93
2018-06-24T03:58:20.052Z,7.70
2018-06-24T04:00:48.227Z,6.50
2018-06-24T04:03:16.404Z,7.27
2018-06-24T04:05:44.594Z,6.87
2018-06-24T04:08:12.770Z,6.90
2018-06-24T04:10:40.996Z,7.60
2018-06-24T04:13:09.170Z,7.90
2018-06-24T04:15:37.346Z,7.40
2018-06-24T04:18:05.791Z,8.13
2018-06-24T04:20:33.980Z,7.57
2018-06-24T04:23:02.176Z,9.03
2018-06-24T04:25:30.346Z,7.23
2018-06-24T04:27:58.588Z,7.33
2018-06-24T04:30:26.780Z,7.03
2018-06-24T04:32:54.953Z,7.90
2018-06-24T04:35:23.142Z,7.43
2018-06-24T04:37:51.314Z,7.50
2018-06-24T04:42:54.102Z,7.27
2018-06-24T04:45:23.140Z,7.40
2018-06-24T04:47:51.314Z,6.63
2018-06-24T04:50:19.489Z,7.37
2018-06-24T04:52:47.667Z,7.27
2018-06-24T04:55:15.850Z,7.70
2018-06-24T04:57:44.066Z,6.80
2018-06-24T05:00:12.274Z,7.20
2018-06-24T05:02:40.470Z,7.10
2018-06-24T05:05:08.651Z,7.43
2018-06-24T05:10:11.474Z,7.27
2018-06-24T05:12:39.686Z,7.67
2018-06-24T05:15:07.878Z,6.80
2018-06-24T05:17:36.080Z,6.83
2018-06-24T05:20:04.355Z,6.73
2018-06-24T05:22:32.571Z,8.23
2018-06-24T05:25:00.815Z,7.70
2018-06-24T05:27:29.046Z,6.83
2018-06-24T05:29:57.178Z,6.80
2018-06-24T05:32:25.411Z,7.07
2018-06-24T05:34:53.610Z,7.43
2018-06-24T05:37:21.815Z,8.00
2018-06-24T05:39:50.010Z,7.20
2018-06-24T05:42:18.202Z,6.90
2018-06-24T05:44:46.394Z,6.30
2018-06-24T05:47:14.621Z,7.67
2018-06-24T05:49:42.805Z,7.20
2018-06-24T05:52:10.987Z,12.63
2018-06-24T05:54:39.189Z,12.33
2018-06-24T05:57:07.424Z,7.50
2018-06-24T05:59:35.626Z,7.80
2018-06-24T06:02:03.809Z,8.57
2018-06-24T06:04:32.010Z,7.80
2018-06-24T06:07:00.225Z,7.80
2018-06-24T06:09:28.799Z,7.63
2018-06-24T06:11:56.990Z,7.60
2018-06-24T06:14:25.186Z,8.57
2018-06-24T06:16:53.962Z,9.00
2018-06-24T06:19:22.229Z,7.60
2018-06-24T06:21:50.449Z,7.60
2018-06-24T06:24:18.639Z,7.50
2018-06-24T06:26:46.821Z,9.77
2018-06-24T06:29:15.033Z,8.20
2018-06-24T06:31:43.222Z,8.17
2018-06-24T06:34:11.399Z,7.47
2018-06-24T06:36:39.646Z,18.27
2018-06-24T06:39:08.890Z,14.70
2018-06-24T06:41:37.312Z,9.30
2018-06-24T06:44:05.978Z,8.80
2018-06-24T06:46:34.190Z,8.10
2018-06-24T06:49:02.385Z,8.53
2018-06-24T06:51:30.578Z,8.47
2018-06-24T06:53:58.782Z,8.50
2018-06-24T06:56:26.958Z,6.70
2018-06-24T06:58:55.122Z,6.43
2018-06-24T07:01:23.290Z,7.90
2018-06-24T07:03:51.513Z,7.17
2018-06-24T07:06:19.723Z,8.40
2018-06-24T07:08:47.894Z,7.13
2018-06-24T07:11:16.088Z,7.30
2018-06-24T07:13:44.352Z,7.73
2018-06-24T07:16:12.504Z,7.10
2018-06-24T07:18:40.697Z,6.67
2018-06-24T07:21:08.874Z,6.73
2018-06-24T07:23:37.046Z,7.50
2018-06-24T07:26:05.360Z,9.10
2018-06-24T07:28:33.567Z,10.07
2018-06-24T07:31:01.722Z,7.03
2018-06-24T07:33:29.959Z,7.70
2018-06-24T07:35:58.083Z,6.83
2018-06-24T07:38:26.325Z,6.67
2018-06-24T07:40:54.439Z,7.10
2018-06-24T07:43:22.629Z,7.13
2018-06-24T07:45:50.823Z,6.50
2018-06-24T07:48:19.023Z,7.83
2018-06-24T07:50:47.227Z,7.03
2018-06-24T07:53:15.421Z,7.00
2018-06-24T07:55:43.614Z,7.20
2018-06-24T07:58:11.850Z,7.37
2018-06-24T08:00:40.098Z,6.40
2018-06-24T08:03:08.363Z,6.50
2018-06-24T08:05:36.530Z,6.80
2018-06-24T08:08:04.790Z,6.63
2018-06-24T08:10:32.985Z,7.80
2018-06-24T08:13:01.187Z,6.30
2018-06-24T08:15:29.391Z,6.47
2018-06-24T08:17:57.628Z,5.97
2018-06-24T08:20:26.044Z,6.10
2018-06-24T08:22:54.429Z,6.60
2018-06-24T08:25:22.809Z,6.87
2018-06-24T08:27:51.030Z,9.00
2018-06-24T08:30:19.366Z,6.93
2018-06-24T08:32:47.592Z,7.00
2018-06-24T08:35:15.853Z,5.87
2018-06-24T08:37:44.127Z,6.10
2018-06-24T08:40:12.342Z,6.10
2018-06-24T08:42:40.727Z,11.77
2018-06-24T08:45:09.091Z,7.70
2018-06-24T08:47:37.284Z,6.90
2018-06-24T08:50:05.807Z,5.60
2018-06-24T08:52:34.342Z,6.80
2018-06-24T08:55:02.565Z,6.10
2018-06-24T08:57:30.798Z,5.70
2018-06-24T09:00:05.387Z,6.60
2018-06-24T09:02:33.598Z,6.00
2018-06-24T09:05:01.815Z,5.77
2018-06-24T09:07:30.022Z,6.50
2018-06-24T09:09:58.190Z,7.03
2018-06-24T09:12:26.383Z,12.23
2018-06-24T09:14:54.579Z,17.63
2018-06-24T09:17:22.743Z,6.77
2018-06-24T09:19:50.997Z,5.83
2018-06-24T09:22:19.151Z,6.87
2018-06-24T09:24:47.326Z,7.30
2018-06-24T09:27:15.491Z,6.30
2018-06-24T09:29:43.731Z,6.80
2018-06-24T09:32:11.908Z,6.57
2018-06-24T09:34:40.095Z,6.60
2018-06-24T09:37:08.300Z,7.13
2018-06-24T09:39:36.553Z,7.13
2018-06-24T09:42:04.731Z,7.17
2018-06-24T09:44:32.998Z,7.10
2018-06-24T09:47:01.922Z,6.60
2018-06-24T09:49:30.121Z,6.43
2018-06-24T09:51:58.306Z,5.83
2018-06-24T09:54:26.554Z,6.27
2018-06-24T09:56:54.807Z,7.00
2018-06-24T09:59:23.339Z,7.83
2018-06-24T10:01:51.301Z,6.67
2018-06-24T10:04:19.498Z,6.00
2018-06-24T10:06:47.719Z,6.70
2018-06-24T10:09:15.998Z,5.97
2018-06-24T10:11:44.210Z,6.50
2018-06-24T10:14:12.407Z,6.70
2018-06-24T10:16:40.736Z,5.27
2018-06-24T10:19:08.930Z,6.47
2018-06-24T10:21:37.201Z,5.13
2018-06-24T10:24:05.470Z,6.10
2018-06-24T10:26:33.689Z,6.10
2018-06-24T10:29:01.891Z,6.47
2018-06-24T10:31:30.070Z,6.00
2018-06-24T10:33:58.250Z,5.80
2018-06-24T10:36:26.411Z,6.00
2018-06-24T10:38:54.694Z,14.50
2018-06-24T10:41:22.951Z,9.37
2018-06-24T10:43:51.126Z,7.80
2018-06-24T10:46:19.319Z,5.80
2018-06-24T10:48:47.530Z,6.23
2018-06-24T10:51:15.742Z,5.47
2018-06-24T10:53:43.944Z,5.30
2018-06-24T10:56:12.476Z,4.60
2018-06-24T10:58:40.706Z,6.03
2018-06-24T11:01:08.996Z,5.10
2018-06-24T11:03:37.233Z,5.37
2018-06-24T11:06:05.759Z,6.80
2018-06-24T11:08:33.947Z,8.03
2018-06-24T11:11:02.197Z,5.70
2018-06-24T11:13:30.378Z,6.67
2018-06-24T11:15:58.578Z,6.13
2018-06-24T11:18:26.758Z,5.70
2018-06-24T11:20:54.986Z,6.07
2018-06-24T11:23:23.187Z,5.97
2018-06-24T11:25:51.690Z,6.97
2018-06-24T11:28:20.003Z,6.23
2018-06-24T11:30:48.196Z,6.37
2018-06-24T11:33:16.387Z,6.27
2018-06-24T11:35:44.569Z,5.50
2018-06-24T11:38:12.767Z,5.67
2018-06-24T11:40:40.972Z,5.40
2018-06-24T11:43:09.235Z,5.67
2018-06-24T11:45:37.438Z,6.57
2018-06-24T11:48:05.859Z,5.03
2018-06-24T11:50:34.152Z,5.80
2018-06-24T11:53:02.323Z,6.43
2018-06-24T11:55:30.509Z,5.53
2018-06-24T11:57:58.679Z,5.60
2018-06-24T12:00:26.886Z,5.17
2018-06-24T12:02:55.060Z,5.10
2018-06-24T12:05:23.248Z,5.87
2018-06-24T12:07:51.462Z,5.40
2018-06-24T12:10:19.647Z,5.00
2018-06-24T12:12:47.827Z,5.40
2018-06-24T12:15:16.058Z,4.93
2018-06-24T12:17:44.276Z,4.67
2018-06-24T12:20:12.499Z,4.93
2018-06-24T12:22:40.651Z,5.37
2018-06-24T12:25:08.859Z,5.20
2018-06-24T12:27:37.038Z,4.20
2018-06-24T12:30:05.674Z,4.93
2018-06-24T12:32:33.851Z,4.10
2018-06-24T12:35:02.094Z,4.77
2018-06-24T12:37:30.304Z,5.17
2018-06-24T12:39:58.448Z,4.90
2018-06-24T12:42:26.723Z,4.27
2018-06-24T12:44:54.890Z,4.60
2018-06-24T12:47:23.100Z,4.73
2018-06-24T12:49:51.297Z,4.50
2018-06-24T12:52:19.471Z,4.10
2018-06-24T12:54:47.649Z,4.57
2018-06-24T12:57:15.849Z,4.63
2018-06-24T12:59:44.307Z,7.30
2018-06-24T13:02:12.299Z,10.03
2018-06-24T13:04:40.495Z,8.00
2018-06-24T13:07:08.709Z,4.10
2018-06-24T13:09:36.950Z,4.30
2018-06-24T13:12:05.314Z,7.07
2018-06-24T13:14:33.499Z,4.77
2018-06-24T13:17:01.802Z,3.83
2018-06-24T13:19:30.016Z,4.80
2018-06-24T13:21:58.274Z,3.83
2018-06-24T13:24:26.273Z,4.03
2018-06-24T13:26:54.518Z,4.40
2018-06-24T13:29:22.714Z,4.70
2018-06-24T13:31:50.930Z,5.87
2018-06-24T13:34:19.114Z,5.27
2018-06-24T13:36:47.374Z,3.70
2018-06-24T13:39:15.590Z,4.47
2018-06-24T13:41:43.554Z,4.07
2018-06-24T13:44:11.755Z,3.10
2018-06-24T13:46:39.938Z,5.20
2018-06-24T13:49:08.179Z,4.33
2018-06-24T13:51:36.386Z,4.07
2018-06-24T13:54:04.631Z,3.50
2018-06-24T13:56:32.866Z,3.87
2018-06-24T13:59:01.090Z,3.77
2018-06-24T14:01:29.297Z,3.30
2018-06-24T14:03:57.601Z,3.33
2018-06-24T14:06:25.766Z,4.03
2018-06-24T14:08:54.352Z,3.00
2018-06-24T14:11:22.573Z,3.10
2018-06-24T14:13:50.789Z,4.07
2018-06-24T14:16:19.042Z,7.27
2018-06-24T14:18:47.318Z,4.80
2018-06-24T14:21:15.520Z,3.27
2018-06-24T14:23:43.703Z,3.53
2018-06-24T14:26:11.992Z,3.30
2018-06-24T14:28:40.294Z,3.53
2018-06-24T14:31:08.538Z,3.97
2018-06-24T14:33:36.742Z,4.00
2018-06-24T14:36:04.967Z,3.53
2018-06-24T14:38:33.170Z,3.70
2018-06-24T14:41:01.358Z,2.90
2018-06-24T14:43:29.569Z,2.93
2018-06-24T14:45:57.743Z,2.97
2018-06-24T14:48:25.966Z,5.00
2018-06-24T14:50:54.158Z,3.40
2018-06-24T14:53:22.381Z,2.50
2018-06-24T14:55:50.620Z,3.30
2018-06-24T14:58:18.857Z,3.07
2018-06-24T15:00:47.058Z,3.10
2018-06-24T15:03:16.188Z,4.30
2018-06-24T15:05:44.370Z,4.43
2018-06-24T15:08:12.962Z,3.83
2018-06-24T15:10:41.202Z,3.23
2018-06-24T15:13:09.432Z,3.00
2018-06-24T15:15:37.634Z,3.40
2018-06-24T15:18:05.847Z,3.33
2018-06-24T15:20:34.082Z,3.40
2018-06-24T15:23:02.285Z,3.00
2018-06-24T15:25:30.495Z,3.40
2018-06-24T15:27:58.762Z,3.43
2018-06-24T15:30:26.958Z,4.43
2018-06-24T15:32:55.172Z,3.27
2018-06-24T15:35:23.393Z,6.87
2018-06-24T15:37:51.623Z,3.67
2018-06-24T15:40:19.841Z,3.07
2018-06-24T15:42:48.026Z,3.40
2018-06-24T15:45:16.290Z,4.27
2018-06-24T15:47:44.486Z,3.57
2018-06-24T15:50:12.725Z,24.63
2018-06-24T15:52:41.015Z,20.23
2018-06-24T15:55:09.214Z,3.23
2018-06-24T15:57:37.496Z,2.80
2018-06-24T16:00:05.826Z,2.80
2018-06-24T16:02:34.062Z,2.83
2018-06-24T16:05:02.285Z,3.83
2018-06-24T16:07:30.517Z,3.60
2018-06-24T16:09:58.723Z,2.87
2018-06-24T16:12:26.974Z,2.97
2018-06-24T16:14:55.224Z,3.60
2018-06-24T16:17:23.419Z,3.70
2018-06-24T16:19:51.694Z,2.77
2018-06-24T16:22:19.875Z,3.40
2018-06-24T16:24:48.063Z,2.70
2018-06-24T16:27:16.338Z,3.20
2018-06-24T16:29:44.563Z,3.60
2018-06-24T16:32:12.772Z,3.20
2018-06-24T16:34:40.958Z,2.87
2018-06-24T16:37:09.154Z,3.13
2018-06-24T16:39:37.344Z,3.50
2018-06-24T16:42:05.598Z,3.40
2018-06-24T16:44:33.818Z,3.70
2018-06-24T16:47:02.076Z,3.70
2018-06-24T16:49:30.294Z,10.97
2018-06-24T16:51:58.499Z,12.50
2018-06-24T16:54:27.137Z,4.10
2018-06-24T16:56:55.375Z,3.17
2018-06-24T16:59:23.596Z,3.57
2018-06-24T17:01:51.863Z,4.63
2018-06-24T17:04:20.270Z,3.73
2018-06-24T17:06:48.510Z,3.77
2018-06-24T17:09:16.830Z,4.07
2018-06-24T17:11:45.031Z,3.30
2018-06-24T17:14:13.284Z,3.83
2018-06-24T17:16:41.482Z,3.47
2018-06-24T17:19:09.704Z,3.20
2018-06-24T17:21:37.978Z,3.30
2018-06-24T17:24:06.286Z,3.30
2018-06-24T17:26:34.582Z,3.47
2018-06-24T17:29:02.781Z,3.07
2018-06-24T17:31:30.969Z,3.70
2018-06-24T17:33:59.174Z,3.37
2018-06-24T17:36:27.420Z,3.50
2018-06-24T17:38:55.637Z,5.30
2018-06-24T17:41:24.057Z,6.50
2018-06-24T17:43:52.261Z,5.57
2018-06-24T17:46:20.636Z,3.60
2018-06-24T17:48:49.014Z,6.33
2018-06-24T17:51:17.404Z,3.67
2018-06-24T17:53:45.687Z,6.40
2018-06-24T17:56:13.926Z,16.03
2018-06-24T17:58:42.131Z,14.63
2018-06-24T18:01:10.405Z,3.73
2018-06-24T18:03:38.864Z,3.40
2018-06-24T18:06:07.138Z,2.90
2018-06-24T18:08:35.357Z,3.37
2018-06-24T18:11:03.620Z,3.73
2018-06-24T18:13:31.899Z,3.23
2018-06-24T18:16:00.120Z,3.80
2018-06-24T18:18:28.308Z,3.30
2018-06-24T18:20:56.503Z,13.93
2018-06-24T18:23:24.781Z,24.07
2018-06-24T18:25:53.013Z,15.70
2018-06-24T18:28:21.231Z,4.30
2018-06-24T18:30:49.438Z,3.60
2018-06-24T18:33:17.755Z,3.20
2018-06-24T18:35:46.043Z,3.10
2018-06-24T18:38:14.271Z,3.60
2018-06-24T18:40:42.526Z,2.80
2018-06-24T18:43:10.783Z,3.07
2018-06-24T18:45:38.930Z,3.10
2018-06-24T18:48:07.131Z,3.50
2018-06-24T18:50:35.503Z,13.23
2018-06-24T18:53:04.331Z,6.77
2018-06-24T18:55:32.588Z,5.70
2018-06-24T18:58:00.866Z,3.90
2018-06-24T19:00:29.122Z,2.97
2018-06-24T19:02:57.418Z,2.17
2018-06-24T19:05:25.618Z,2.83
2018-06-24T19:07:53.815Z,2.87
2018-06-24T19:10:22.227Z,2.77
2018-06-24T19:12:50.612Z,3.27
2018-06-24T19:15:19.022Z,2.97
2018-06-24T19:17:47.246Z,2.30
2018-06-24T19:20:15.478Z,2.80
2018-06-24T19:22:43.738Z,3.23
2018-06-24T19:25:12.013Z,2.20
2018-06-24T19:27:40.399Z,3.37
2018-06-24T19:30:08.696Z,3.70
2018-06-24T19:32:36.924Z,6.13
2018-06-24T19:35:05.579Z,11.80
2018-06-24T19:37:33.829Z,5.43
2018-06-24T19:40:02.155Z,3.50
2018-06-24T19:42:30.396Z,2.90
2018-06-24T19:44:58.662Z,2.83
2018-06-24T19:47:26.917Z,2.60
2018-06-24T19:49:56.385Z,2.67
2018-06-24T19:52:24.682Z,2.77
2018-06-24T19:54:52.911Z,2.70
2018-06-24T19:57:21.121Z,3.70
2018-06-24T19:59:49.447Z,3.20
2018-06-24T20:02:17.411Z,3.00
2018-06-24T20:04:45.635Z,2.83
2018-06-24T20:07:13.842Z,3.63
2018-06-24T20:09:42.039Z,2.57
2018-06-24T20:12:10.225Z,2.77
2018-06-24T20:14:38.435Z,3.17
2018-06-24T20:17:06.633Z,3.30
2018-06-24T20:19:34.805Z,4.23
2018-06-24T20:22:03.071Z,17.00
2018-06-24T20:24:31.282Z,10.00
2018-06-24T20:26:59.565Z,3.57
2018-06-24T20:29:27.797Z,3.17
2018-06-24T20:31:56.147Z,3.00
2018-06-24T20:34:24.489Z,3.90
2018-06-24T20:36:52.648Z,4.10
2018-06-24T20:39:20.886Z,9.67
2018-06-24T20:41:49.224Z,4.40
2018-06-24T20:44:17.512Z,3.70
2018-06-24T20:46:45.875Z,3.37
2018-06-24T20:49:14.102Z,3.90
2018-06-24T20:51:42.379Z,4.27
2018-06-24T20:54:10.646Z,4.90
2018-06-24T20:56:38.940Z,4.20
2018-06-24T20:59:07.217Z,4.57
2018-06-24T21:01:35.483Z,4.33
2018-06-24T21:04:03.770Z,4.50
2018-06-24T21:06:32.128Z,5.07
2018-06-24T21:09:00.406Z,6.07
2018-06-24T21:11:28.659Z,5.50
2018-06-24T21:13:56.962Z,5.73
2018-06-24T21:16:25.167Z,5.90
2018-06-24T21:18:53.540Z,5.93
2018-06-24T21:21:21.819Z,5.53
2018-06-24T21:23:50.081Z,5.50
2018-06-24T21:26:18.351Z,6.13
2018-06-24T21:28:46.595Z,6.30
2018-06-24T21:31:14.818Z,7.03
2018-06-24T21:33:43.070Z,6.40
2018-06-24T21:36:11.341Z,6.63
2018-06-24T21:38:39.795Z,6.53
2018-06-24T21:41:08.046Z,7.00
2018-06-24T21:43:36.280Z,6.03
2018-06-24T21:46:04.670Z,6.43
2018-06-24T21:48:32.879Z,7.37
2018-06-24T21:51:01.158Z,6.50
2018-06-24T21:53:29.410Z,6.37
2018-06-24T21:55:57.643Z,6.60
2018-06-24T21:58:25.858Z,7.07
2018-06-24T22:00:54.381Z,7.40
2018-06-24T22:03:22.722Z,6.27
2018-06-24T22:05:50.922Z,6.17
2018-06-24T22:08:19.143Z,6.10
2018-06-24T22:10:47.608Z,6.13
2018-06-24T22:13:15.824Z,6.40
2018-06-24T22:15:44.032Z,6.63
2018-06-24T22:18:12.276Z,7.30
2018-06-24T22:20:40.480Z,6.50
2018-06-24T22:23:08.727Z,7.00
2018-06-24T22:25:37.028Z,7.00
2018-06-24T22:28:05.662Z,6.10
2018-06-24T22:30:33.991Z,5.63
2018-06-24T22:33:02.199Z,6.40
2018-06-24T22:35:30.406Z,7.00
2018-06-24T22:37:58.651Z,6.80
2018-06-24T22:40:26.890Z,7.80
2018-06-24T22:42:55.290Z,7.70
2018-06-24T22:45:23.536Z,8.97
2018-06-24T22:47:51.726Z,8.27
2018-06-24T22:50:19.946Z,7.63
2018-06-24T22:52:48.158Z,7.60
2018-06-24T22:55:16.379Z,9.10
2018-06-24T22:57:44.630Z,8.40
2018-06-24T23:00:15.775Z,8.80
2018-06-24T23:02:44.727Z,8.60
2018-06-24T23:05:13.642Z,9.17
2018-06-24T23:07:43.815Z,9.10
2018-06-24T23:10:12.487Z,9.60
2018-06-24T23:12:40.940Z,9.40
2018-06-24T23:15:10.163Z,9.83
2018-06-24T23:17:38.703Z,9.83
2018-06-24T23:20:07.874Z,8.43
2018-06-24T23:22:36.338Z,10.20
2018-06-24T23:25:05.079Z,10.80
2018-06-24T23:27:33.559Z,11.43
2018-06-24T23:30:01.771Z,10.37
2018-06-24T23:32:30.123Z,10.37
2018-06-24T23:34:58.323Z,11.80
2018-06-24T23:37:26.589Z,11.23
2018-06-24T23:39:54.966Z,11.77
2018-06-24T23:42:23.205Z,12.80
2018-06-24T23:44:51.562Z,12.97
2018-06-24T23:47:19.869Z,14.00
2018-06-24T23:49:48.130Z,12.93
2018-06-24T23:52:16.422Z,14.87
2018-06-24T23:54:44.679Z,14.57
2018-06-24T23:57:12.907Z,15.77
2018-06-24T23:59:41.188Z,16.80
